createdAt,value
2022-07-31T00:02:07.890Z,23.50
2022-07-31T00:04:35.278Z,23.39
2022-07-31T00:07:02.644Z,23.29
2022-07-31T00:09:53.168Z,23.42
2022-07-31T00:12:17.617Z,23.23
2022-07-31T00:14:44.887Z,23.53
2022-07-31T00:17:11.609Z,23.43
2022-07-31T00:19:38.842Z,23.53
2022-07-31T00:22:06.628Z,23.28
2022-07-31T00:24:33.729Z,23.28
2022-07-31T00:27:01.309Z,23.37
2022-07-31T00:29:28.342Z,23.32
2022-07-31T00:31:55.112Z,23.37
2022-07-31T00:34:22.339Z,23.42
2022-07-31T00:36:49.166Z,23.45
2022-07-31T00:39:15.871Z,23.42
2022-07-31T00:41:46.252Z,23.50
2022-07-31T00:44:13.461Z,23.40
2022-07-31T00:46:40.675Z,23.39
2022-07-31T00:49:10.359Z,23.35
2022-07-31T00:51:38.140Z,23.24
2022-07-31T00:54:05.502Z,23.16
2022-07-31T00:56:32.492Z,23.28
2022-07-31T00:58:59.461Z,22.97
2022-07-31T01:01:26.562Z,23.15
2022-07-31T01:03:53.705Z,23.18
2022-07-31T01:06:20.698Z,23.26
2022-07-31T01:08:48.413Z,23.24
2022-07-31T01:11:21.762Z,23.28
2022-07-31T01:13:53.172Z,23.16
2022-07-31T01:16:20.652Z,23.26
2022-07-31T01:18:47.755Z,23.19
2022-07-31T01:21:19.518Z,23.25
2022-07-31T01:23:55.063Z,23.15
2022-07-31T01:26:35.358Z,23.22
2022-07-31T01:29:05.673Z,22.51
2022-07-31T01:31:43.865Z,22.73
2022-07-31T01:34:40.621Z,22.79
2022-07-31T01:37:18.172Z,22.65
2022-07-31T01:39:46.456Z,22.72
2022-07-31T01:42:13.982Z,22.72
2022-07-31T01:44:42.765Z,23.07
2022-07-31T01:47:10.594Z,23.16
2022-07-31T01:49:37.290Z,23.12
2022-07-31T01:52:04.711Z,23.06
2022-07-31T01:54:32.610Z,22.39
2022-07-31T01:56:59.661Z,22.85
2022-07-31T01:59:26.604Z,23.13
2022-07-31T02:01:56.553Z,23.03
2022-07-31T02:04:23.625Z,23.05
2022-07-31T02:06:50.622Z,23.18
2022-07-31T02:09:18.244Z,23.13
2022-07-31T02:11:53.360Z,22.86
2022-07-31T02:14:32.391Z,23.04
2022-07-31T02:17:00.483Z,22.78
2022-07-31T02:19:34.444Z,22.71
2022-07-31T02:22:01.917Z,23.05
2022-07-31T02:24:29.011Z,22.98
2022-07-31T02:26:55.744Z,22.63
2022-07-31T02:29:22.770Z,22.90
2022-07-31T02:32:02.811Z,22.91
2022-07-31T02:34:30.748Z,22.75
2022-07-31T02:36:58.389Z,22.77
2022-07-31T02:39:30.418Z,22.96
2022-07-31T02:41:59.412Z,22.89
2022-07-31T02:44:27.123Z,22.44
2022-07-31T02:46:54.692Z,22.76
2022-07-31T02:49:21.857Z,22.94
2022-07-31T02:51:49.569Z,23.06
2022-07-31T02:54:16.478Z,22.87
2022-07-31T02:56:43.561Z,22.61
2022-07-31T02:59:10.323Z,22.51
2022-07-31T03:01:38.720Z,22.32
2022-07-31T03:04:06.305Z,22.56
2022-07-31T03:06:33.190Z,22.67
2022-07-31T03:09:00.046Z,22.80
2022-07-31T03:11:27.192Z,22.70
2022-07-31T03:13:54.524Z,22.63
2022-07-31T03:16:21.320Z,22.61
2022-07-31T03:18:48.678Z,22.68
2022-07-31T03:21:15.405Z,22.36
2022-07-31T03:23:42.189Z,22.64
2022-07-31T03:26:09.311Z,22.38
2022-07-31T03:28:36.145Z,22.25
2022-07-31T03:31:04.096Z,22.42
2022-07-31T03:33:31.168Z,22.46
2022-07-31T03:35:59.099Z,22.44
2022-07-31T03:38:38.954Z,22.10
2022-07-31T03:41:11.272Z,22.27
2022-07-31T03:43:47.020Z,22.29
2022-07-31T03:46:15.899Z,22.61
2022-07-31T03:48:42.673Z,22.65
2022-07-31T03:51:09.425Z,22.67
2022-07-31T03:53:36.439Z,22.57
2022-07-31T03:56:03.403Z,22.53
2022-07-31T03:58:31.141Z,22.43
2022-07-31T04:00:58.748Z,22.75
2022-07-31T04:03:30.305Z,22.50
2022-07-31T04:05:58.909Z,22.65
2022-07-31T04:08:25.991Z,22.77
2022-07-31T04:10:53.966Z,22.10
2022-07-31T04:13:20.868Z,22.59
2022-07-31T04:15:48.403Z,22.33
2022-07-31T04:18:15.274Z,22.45
2022-07-31T04:20:42.169Z,22.20
2022-07-31T04:23:09.349Z,22.49
2022-07-31T04:25:38.002Z,22.31
2022-07-31T04:28:05.323Z,22.38
2022-07-31T04:30:32.699Z,22.20
2022-07-31T04:32:59.865Z,22.27
2022-07-31T04:35:26.709Z,22.28
2022-07-31T04:37:54.882Z,22.22
2022-07-31T04:40:22.090Z,22.07
2022-07-31T04:42:49.108Z,22.14
2022-07-31T04:45:16.186Z,21.83
2022-07-31T04:47:42.987Z,22.09
2022-07-31T04:50:09.816Z,22.32
2022-07-31T04:52:37.358Z,21.72
2022-07-31T04:55:05.208Z,22.13
2022-07-31T04:57:31.998Z,22.00
2022-07-31T05:00:01.367Z,21.67
2022-07-31T05:02:28.702Z,21.91
2022-07-31T05:04:56.840Z,21.96
2022-07-31T05:07:27.780Z,22.09
2022-07-31T05:09:56.739Z,21.94
2022-07-31T05:12:23.976Z,22.26
2022-07-31T05:14:50.988Z,22.13
2022-07-31T05:17:17.826Z,21.97
2022-07-31T05:19:45.426Z,21.96
2022-07-31T05:22:15.780Z,22.16
2022-07-31T05:24:45.720Z,21.83
2022-07-31T05:27:12.585Z,22.02
2022-07-31T05:29:39.858Z,22.00
2022-07-31T05:32:06.985Z,22.07
2022-07-31T05:34:34.131Z,21.77
2022-07-31T05:37:01.911Z,22.04
2022-07-31T05:39:29.205Z,22.12
2022-07-31T05:41:58.227Z,21.36
2022-07-31T05:44:25.591Z,21.63
2022-07-31T05:49:19.197Z,21.67
2022-07-31T05:51:46.971Z,21.83
2022-07-31T05:54:14.184Z,21.96
2022-07-31T05:56:49.047Z,21.89
2022-07-31T05:59:16.049Z,22.04
2022-07-31T06:01:42.929Z,21.72
2022-07-31T06:04:10.548Z,21.94
2022-07-31T06:06:38.269Z,21.73
2022-07-31T06:09:05.235Z,21.67
2022-07-31T06:11:32.785Z,22.14
2022-07-31T06:13:59.717Z,21.95
2022-07-31T06:16:26.825Z,22.06
2022-07-31T06:18:54.114Z,21.85
2022-07-31T06:23:46.580Z,21.91
2022-07-31T06:26:14.127Z,21.99
2022-07-31T06:28:48.451Z,21.90
2022-07-31T06:31:17.498Z,21.35
2022-07-31T06:33:48.164Z,21.70
2022-07-31T06:36:16.307Z,21.57
2022-07-31T06:38:46.079Z,21.81
2022-07-31T06:41:35.357Z,21.52
2022-07-31T06:44:19.914Z,21.72
2022-07-31T06:46:50.453Z,21.78
2022-07-31T06:49:20.754Z,21.82
2022-07-31T06:51:48.324Z,21.91
2022-07-31T06:54:15.147Z,21.82
2022-07-31T06:56:42.218Z,21.94
2022-07-31T06:59:08.945Z,22.00
2022-07-31T07:01:35.906Z,22.16
2022-07-31T07:04:03.053Z,22.08
2022-07-31T07:06:29.812Z,21.72
2022-07-31T07:08:56.672Z,21.99
2022-07-31T07:11:23.718Z,21.70
2022-07-31T07:13:50.948Z,21.91
2022-07-31T07:16:18.476Z,21.85
2022-07-31T07:18:45.537Z,21.74
2022-07-31T07:21:12.502Z,21.97
2022-07-31T07:23:39.788Z,22.08
2022-07-31T07:26:07.083Z,22.27
2022-07-31T07:28:34.101Z,22.00
2022-07-31T07:31:01.024Z,22.25
2022-07-31T07:33:41.263Z,22.21
2022-07-31T07:36:09.091Z,22.21
2022-07-31T07:38:55.598Z,22.31
2022-07-31T07:41:23.997Z,22.61
2022-07-31T07:43:51.758Z,22.43
2022-07-31T07:46:20.799Z,22.40
2022-07-31T07:48:51.037Z,22.46
2022-07-31T07:51:18.679Z,22.59
2022-07-31T07:53:46.279Z,22.80
2022-07-31T07:56:15.666Z,22.81
2022-07-31T07:58:44.009Z,22.72
2022-07-31T08:01:12.502Z,22.68
2022-07-31T08:03:51.040Z,22.74
2022-07-31T08:06:19.627Z,23.11
2022-07-31T08:08:46.709Z,22.99
2022-07-31T08:11:17.961Z,23.48
2022-07-31T08:13:51.171Z,23.44
2022-07-31T08:16:21.940Z,23.65
2022-07-31T08:18:49.522Z,23.83
2022-07-31T08:21:16.487Z,23.74
2022-07-31T08:23:43.553Z,23.59
2022-07-31T08:26:10.538Z,23.73
2022-07-31T08:28:38.641Z,23.45
2022-07-31T08:31:05.744Z,23.74
2022-07-31T08:33:35.953Z,23.66
2022-07-31T08:36:02.993Z,23.86
2022-07-31T08:38:30.109Z,24.12
2022-07-31T08:40:58.204Z,24.14
2022-07-31T08:44:00.791Z,23.89
2022-07-31T08:46:13.058Z,24.53
2022-07-31T08:48:41.208Z,24.91
2022-07-31T08:51:09.168Z,24.26
2022-07-31T08:53:37.566Z,24.32
2022-07-31T08:56:05.823Z,24.27
2022-07-31T08:58:37.252Z,24.21
2022-07-31T09:01:08.494Z,23.96
2022-07-31T09:03:36.200Z,24.07
2022-07-31T09:06:04.236Z,23.78
2022-07-31T09:08:36.093Z,23.44
2022-07-31T09:11:07.236Z,23.22
2022-07-31T09:13:36.104Z,23.27
2022-07-31T09:16:06.395Z,23.24
2022-07-31T09:18:33.571Z,23.14
2022-07-31T09:21:01.991Z,22.93
2022-07-31T09:23:31.998Z,22.40
2022-07-31T09:26:00.332Z,22.49
2022-07-31T09:28:39.713Z,22.40
2022-07-31T09:31:08.121Z,22.65
2022-07-31T09:33:42.307Z,22.51
2022-07-31T09:36:13.649Z,22.53
2022-07-31T09:38:44.535Z,22.42
2022-07-31T09:41:56.873Z,22.44
2022-07-31T09:44:09.465Z,22.55
2022-07-31T09:46:48.325Z,22.50
2022-07-31T09:49:15.498Z,22.59
2022-07-31T09:51:44.239Z,22.67
2022-07-31T09:54:25.201Z,22.66
2022-07-31T09:56:53.151Z,22.85
2022-07-31T09:59:20.285Z,22.85
2022-07-31T10:01:48.953Z,23.02
2022-07-31T10:04:19.543Z,23.27
2022-07-31T10:06:50.265Z,23.19
2022-07-31T10:09:21.326Z,23.11
2022-07-31T10:11:49.934Z,22.84
2022-07-31T10:14:32.546Z,23.26
2022-07-31T10:17:00.682Z,22.82
2022-07-31T10:19:29.296Z,23.05
2022-07-31T10:22:04.180Z,23.40
2022-07-31T10:24:32.125Z,22.85
2022-07-31T10:27:01.661Z,23.18
2022-07-31T10:29:35.458Z,23.27
2022-07-31T10:32:03.732Z,23.14
2022-07-31T10:34:32.634Z,22.91
2022-07-31T10:37:08.431Z,23.08
2022-07-31T10:39:42.453Z,23.18
2022-07-31T10:42:25.599Z,22.86
2022-07-31T10:44:56.052Z,23.07
2022-07-31T10:47:23.271Z,22.84
2022-07-31T10:49:55.023Z,22.90
2022-07-31T10:52:31.274Z,22.98
2022-07-31T10:55:14.966Z,23.16
2022-07-31T10:57:56.118Z,23.04
2022-07-31T11:00:29.637Z,23.13
2022-07-31T11:02:57.466Z,23.27
2022-07-31T11:05:28.170Z,23.13
2022-07-31T11:08:02.629Z,23.53
2022-07-31T11:10:30.739Z,23.64
2022-07-31T11:13:00.552Z,23.50
2022-07-31T11:15:28.809Z,23.37
2022-07-31T11:18:22.482Z,23.62
2022-07-31T11:20:47.938Z,23.66
2022-07-31T11:23:16.823Z,23.59
2022-07-31T11:25:44.649Z,23.56
2022-07-31T11:28:12.442Z,23.77
2022-07-31T11:30:58.302Z,23.93
2022-07-31T11:33:39.566Z,24.17
2022-07-31T11:36:16.314Z,24.23
2022-07-31T11:38:46.129Z,24.04
2022-07-31T11:41:15.149Z,23.71
2022-07-31T11:43:49.478Z,24.13
2022-07-31T11:46:42.541Z,24.26
2022-07-31T11:49:09.382Z,24.19
2022-07-31T11:51:36.397Z,24.30
2022-07-31T11:54:03.218Z,24.29
2022-07-31T11:56:30.116Z,23.92
2022-07-31T11:58:58.216Z,23.80
2022-07-31T12:01:29.059Z,23.82
2022-07-31T12:03:57.513Z,23.69
2022-07-31T12:06:36.706Z,23.50
2022-07-31T12:09:03.956Z,23.55
2022-07-31T12:11:31.411Z,23.27
2022-07-31T12:13:59.506Z,23.58
2022-07-31T12:16:26.762Z,23.57
2022-07-31T12:18:55.001Z,23.79
2022-07-31T12:21:29.668Z,23.79
2022-07-31T12:23:58.246Z,24.12
2022-07-31T12:26:32.581Z,24.19
2022-07-31T12:29:00.424Z,23.94
2022-07-31T12:31:27.440Z,23.90
2022-07-31T12:33:54.492Z,23.78
2022-07-31T12:36:21.756Z,23.53
2022-07-31T12:39:01.777Z,23.65
2022-07-31T12:41:29.418Z,23.95
2022-07-31T12:43:56.298Z,24.10
2022-07-31T12:46:23.312Z,23.75
2022-07-31T12:48:50.479Z,23.98
2022-07-31T12:51:20.483Z,23.55
2022-07-31T12:54:07.906Z,23.76
2022-07-31T12:56:35.651Z,23.76
2022-07-31T12:59:02.448Z,23.85
2022-07-31T13:01:29.654Z,23.73
2022-07-31T13:03:58.368Z,23.52
2022-07-31T13:06:26.726Z,23.83
2022-07-31T13:08:54.000Z,23.70
2022-07-31T13:11:20.786Z,23.28
2022-07-31T13:13:47.590Z,22.92
2022-07-31T13:16:14.748Z,22.97
2022-07-31T13:18:41.505Z,22.90
2022-07-31T13:21:08.262Z,22.98
2022-07-31T13:23:35.431Z,23.28
2022-07-31T13:26:02.169Z,23.18
2022-07-31T13:28:28.920Z,23.18
2022-07-31T13:30:56.015Z,23.33
2022-07-31T13:33:22.769Z,23.23
2022-07-31T13:35:49.522Z,23.21
2022-07-31T13:38:17.475Z,23.18
2022-07-31T13:41:03.038Z,22.97
2022-07-31T13:43:30.037Z,22.78
2022-07-31T13:45:56.794Z,22.72
2022-07-31T13:48:23.518Z,23.04
2022-07-31T13:50:50.680Z,22.83
2022-07-31T13:53:17.404Z,23.20
2022-07-31T13:55:48.413Z,23.17
2022-07-31T13:58:17.785Z,22.99
2022-07-31T14:00:44.697Z,23.02
2022-07-31T14:03:12.954Z,23.09
2022-07-31T14:05:44.195Z,23.04
2022-07-31T14:08:29.736Z,23.21
2022-07-31T14:10:58.151Z,23.32
2022-07-31T14:13:25.407Z,23.41
2022-07-31T14:15:52.171Z,23.27
2022-07-31T14:18:18.997Z,23.31
2022-07-31T14:20:46.185Z,23.37
2022-07-31T14:23:13.914Z,23.56
2022-07-31T14:25:41.063Z,23.70
2022-07-31T14:28:09.046Z,23.31
2022-07-31T14:30:36.644Z,23.46
2022-07-31T14:33:04.718Z,23.60
2022-07-31T14:35:33.612Z,23.65
2022-07-31T14:38:03.997Z,23.30
2022-07-31T14:40:31.567Z,23.39
2022-07-31T14:42:58.407Z,23.44
2022-07-31T14:45:25.276Z,23.39
2022-07-31T14:47:52.911Z,23.12
2022-07-31T14:50:20.119Z,23.00
2022-07-31T14:52:47.521Z,23.04
2022-07-31T14:55:14.512Z,23.20
2022-07-31T14:57:41.393Z,23.32
2022-07-31T15:00:12.949Z,23.25
2022-07-31T15:02:40.807Z,23.31
2022-07-31T15:06:41.900Z,23.63
2022-07-31T15:07:56.826Z,23.46
2022-07-31T15:10:23.612Z,23.85
2022-07-31T15:12:50.941Z,23.86
2022-07-31T15:15:17.982Z,23.76
2022-07-31T15:17:44.655Z,23.94
2022-07-31T15:20:11.569Z,24.03
2022-07-31T15:22:38.589Z,24.24
2022-07-31T15:25:05.541Z,24.09
2022-07-31T15:27:32.290Z,24.45
2022-07-31T15:30:05.642Z,24.41
2022-07-31T15:32:34.786Z,24.49
2022-07-31T15:35:01.928Z,24.74
2022-07-31T15:37:28.965Z,24.46
2022-07-31T15:40:01.947Z,24.40
2022-07-31T15:42:33.192Z,24.72
2022-07-31T15:45:00.184Z,24.42
2022-07-31T15:47:26.936Z,24.46
2022-07-31T15:49:54.142Z,24.41
2022-07-31T15:52:20.870Z,24.30
2022-07-31T15:54:51.832Z,24.56
2022-07-31T15:57:20.296Z,24.47
2022-07-31T15:59:47.448Z,24.46
2022-07-31T16:02:14.167Z,24.67
2022-07-31T16:04:44.928Z,24.51
2022-07-31T16:08:29.023Z,24.48
2022-07-31T16:10:15.440Z,24.03
2022-07-31T16:12:44.499Z,24.31
2022-07-31T16:15:12.467Z,24.48
2022-07-31T16:17:39.674Z,24.53
2022-07-31T16:20:08.723Z,24.38
2022-07-31T16:22:36.169Z,24.14
2022-07-31T16:25:03.212Z,24.22
2022-07-31T16:27:30.077Z,24.31
2022-07-31T16:29:59.042Z,24.34
2022-07-31T16:32:28.460Z,24.27
2022-07-31T16:35:00.273Z,24.00
2022-07-31T16:37:50.099Z,24.11
2022-07-31T16:40:30.962Z,24.11
2022-07-31T16:43:02.053Z,23.95
2022-07-31T16:45:30.037Z,23.89
2022-07-31T16:47:57.226Z,23.24
2022-07-31T16:50:25.373Z,22.75
2022-07-31T16:52:54.848Z,23.18
2022-07-31T16:56:00.235Z,23.11
2022-07-31T16:58:11.613Z,23.23
2022-07-31T17:00:39.079Z,23.26
2022-07-31T17:03:06.045Z,23.48
2022-07-31T17:05:33.170Z,23.71
2022-07-31T17:08:00.111Z,23.43
2022-07-31T17:10:27.095Z,23.59
2022-07-31T17:12:54.842Z,23.81
2022-07-31T17:15:21.721Z,23.48
2022-07-31T17:17:48.533Z,23.80
2022-07-31T17:20:18.402Z,23.26
2022-07-31T17:22:51.176Z,23.64
2022-07-31T17:25:22.231Z,23.36
2022-07-31T17:27:52.058Z,23.66
2022-07-31T17:30:18.916Z,22.77
2022-07-31T17:32:46.493Z,23.38
2022-07-31T17:35:13.745Z,23.39
2022-07-31T17:37:40.637Z,23.23
2022-07-31T17:40:27.069Z,23.35
2022-07-31T17:42:54.935Z,23.50
2022-07-31T17:45:21.938Z,23.87
2022-07-31T17:47:49.012Z,23.49
2022-07-31T17:50:30.664Z,23.72
2022-07-31T17:52:57.408Z,23.59
2022-07-31T17:55:24.236Z,23.61
2022-07-31T17:57:51.254Z,23.76
2022-07-31T18:00:19.345Z,23.57
2022-07-31T18:02:47.464Z,23.74
2022-07-31T18:05:14.368Z,24.02
2022-07-31T18:07:41.135Z,23.87
2022-07-31T18:10:12.004Z,23.81
2022-07-31T18:12:57.484Z,23.70
2022-07-31T18:15:35.915Z,23.96
2022-07-31T18:18:03.009Z,23.76
2022-07-31T18:20:30.207Z,23.78
2022-07-31T18:22:57.936Z,23.85
2022-07-31T18:25:24.826Z,23.76
2022-07-31T18:27:52.534Z,23.85
2022-07-31T18:30:19.315Z,23.65
2022-07-31T18:32:46.161Z,23.69
2022-07-31T18:35:13.197Z,23.49
2022-07-31T18:37:39.973Z,23.15
2022-07-31T18:40:07.152Z,23.64
2022-07-31T18:42:34.235Z,23.79
2022-07-31T18:45:01.215Z,23.58
2022-07-31T18:47:30.129Z,23.51
2022-07-31T18:50:59.379Z,23.56
2022-07-31T18:52:44.370Z,23.58
2022-07-31T18:55:11.600Z,23.54
2022-07-31T18:57:38.499Z,23.42
2022-07-31T19:00:06.226Z,23.58
2022-07-31T19:02:33.230Z,23.57
2022-07-31T19:05:00.037Z,23.48
2022-07-31T19:07:27.596Z,23.19
2022-07-31T19:09:54.693Z,23.56
2022-07-31T19:12:21.891Z,23.50
2022-07-31T19:14:48.696Z,23.54
2022-07-31T19:17:19.759Z,23.64
2022-07-31T19:19:54.407Z,23.42
2022-07-31T19:22:22.763Z,23.31
2022-07-31T19:24:50.614Z,23.42
2022-07-31T19:27:18.277Z,23.37
2022-07-31T19:29:48.385Z,23.50
2022-07-31T19:32:15.120Z,23.27
2022-07-31T19:34:42.371Z,23.17
2022-07-31T19:37:16.322Z,23.23
2022-07-31T19:39:43.290Z,23.24
2022-07-31T19:42:11.600Z,23.10
2022-07-31T19:44:39.996Z,23.08
2022-07-31T19:47:06.921Z,23.17
2022-07-31T19:49:37.848Z,23.11
2022-07-31T19:52:06.004Z,23.25
2022-07-31T19:54:33.442Z,23.37
2022-07-31T19:57:00.409Z,23.32
2022-07-31T19:59:27.670Z,23.36
2022-07-31T20:01:54.814Z,23.33
2022-07-31T20:04:22.631Z,23.24
2022-07-31T20:06:52.051Z,23.14
2022-07-31T20:09:22.029Z,23.16
2022-07-31T20:11:49.999Z,23.33
2022-07-31T20:14:16.952Z,23.25
2022-07-31T20:16:43.895Z,23.01
2022-07-31T20:19:11.285Z,23.10
2022-07-31T20:21:38.258Z,23.12
2022-07-31T20:24:05.269Z,23.10
2022-07-31T20:26:36.467Z,23.01
2022-07-31T20:29:04.105Z,23.06
2022-07-31T20:31:31.054Z,23.06
2022-07-31T20:34:00.801Z,22.88
2022-07-31T20:36:28.523Z,23.00
2022-07-31T20:38:58.782Z,22.94
2022-07-31T20:41:27.421Z,22.92
2022-07-31T20:43:54.555Z,22.79
2022-07-31T20:46:21.268Z,22.74
2022-07-31T20:48:50.053Z,22.78
2022-07-31T20:51:21.938Z,22.81
2022-07-31T20:53:49.917Z,22.75
2022-07-31T20:56:16.678Z,22.66
2022-07-31T20:58:46.136Z,22.72
2022-07-31T21:01:18.216Z,22.88
2022-07-31T21:03:44.992Z,22.83
2022-07-31T21:06:14.435Z,22.58
2022-07-31T21:08:41.663Z,22.91
2022-07-31T21:11:08.505Z,22.58
2022-07-31T21:13:36.399Z,22.68
2022-07-31T21:16:03.536Z,22.85
2022-07-31T21:18:34.339Z,22.75
2022-07-31T21:21:01.726Z,22.82
2022-07-31T21:23:28.970Z,22.68
2022-07-31T21:25:56.267Z,22.74
2022-07-31T21:28:23.483Z,22.62
2022-07-31T21:30:50.774Z,22.95
2022-07-31T21:33:18.293Z,22.78
2022-07-31T21:35:45.854Z,22.48
2022-07-31T21:38:15.299Z,22.90
2022-07-31T21:40:42.133Z,22.67
2022-07-31T21:43:09.192Z,22.73
2022-07-31T21:45:50.954Z,22.80
2022-07-31T21:48:23.571Z,22.74
2022-07-31T21:50:50.916Z,22.71
2022-07-31T21:53:17.624Z,22.55
2022-07-31T21:55:44.347Z,22.49
2022-07-31T21:58:11.395Z,22.49
2022-07-31T22:00:38.225Z,22.48
2022-07-31T22:03:05.503Z,22.65
2022-07-31T22:05:51.179Z,22.78
2022-07-31T22:08:18.279Z,22.59
2022-07-31T22:10:45.086Z,22.63
2022-07-31T22:13:11.866Z,22.72
2022-07-31T22:15:54.283Z,22.46
2022-07-31T22:18:30.149Z,22.34
2022-07-31T22:20:57.643Z,22.44
2022-07-31T22:23:24.698Z,22.39
2022-07-31T22:25:51.549Z,22.24
2022-07-31T22:28:22.620Z,22.08
2022-07-31T22:30:49.572Z,22.28
2022-07-31T22:33:16.337Z,22.26
2022-07-31T22:35:43.423Z,21.83
2022-07-31T22:38:13.178Z,21.86
2022-07-31T22:40:40.511Z,21.79
2022-07-31T22:44:10.795Z,21.83
2022-07-31T22:45:58.486Z,21.59
2022-07-31T22:48:27.793Z,21.61
2022-07-31T22:50:55.217Z,21.60
2022-07-31T22:53:22.015Z,21.70
2022-07-31T22:55:49.073Z,21.73
2022-07-31T22:58:15.770Z,21.87
2022-07-31T23:00:42.540Z,21.83
2022-07-31T23:03:09.600Z,21.93
2022-07-31T23:06:28.045Z,21.77
2022-07-31T23:08:23.707Z,21.71
2022-07-31T23:10:50.418Z,21.67
2022-07-31T23:13:17.156Z,21.40
2022-07-31T23:15:44.829Z,21.35
2022-07-31T23:18:12.016Z,21.26
2022-07-31T23:20:38.823Z,21.46
2022-07-31T23:23:05.818Z,21.45
2022-07-31T23:25:32.547Z,21.23
2022-07-31T23:27:59.398Z,21.29
2022-07-31T23:30:27.623Z,21.21
2022-07-31T23:32:55.417Z,21.07
2022-07-31T23:35:22.186Z,21.23
2022-07-31T23:37:49.194Z,21.13
2022-07-31T23:40:15.905Z,21.10
2022-07-31T23:42:42.695Z,20.94
2022-07-31T23:45:15.368Z,21.06
2022-07-31T23:47:46.118Z,21.01
2022-07-31T23:50:13.983Z,21.18
2022-07-31T23:52:42.247Z,21.18
2022-07-31T23:55:09.236Z,21.20
2022-07-31T23:57:38.891Z,21.01
